createdAt,value
2019-04-30T00:00:10.722Z,5.12
2019-04-30T00:02:46.233Z,5.08
2019-04-30T00:05:18.742Z,5.28
2019-04-30T00:07:50.928Z,5.22
2019-04-30T00:10:17.609Z,4.70
2019-04-30T00:12:47.324Z,5.20
2019-04-30T00:15:19.473Z,4.80
2019-04-30T00:17:52.839Z,5.65
2019-04-30T00:20:19.273Z,4.55
2019-04-30T00:22:50.447Z,5.03
2019-04-30T00:25:23.942Z,4.37
2019-04-30T00:27:50.636Z,4.95
2019-04-30T00:30:19.962Z,5.08
2019-04-30T00:32:49.271Z,5.20
2019-04-30T00:35:19.806Z,5.42
2019-04-30T00:37:51.978Z,4.08
2019-04-30T00:40:21.661Z,6.75
2019-04-30T00:42:51.229Z,5.05
2019-04-30T00:45:20.519Z,4.95
2019-04-30T00:47:49.752Z,4.47
2019-04-30T00:50:19.434Z,4.85
2019-04-30T00:52:48.671Z,4.70
2019-04-30T00:55:17.984Z,5.45
2019-04-30T00:57:47.612Z,5.00
2019-04-30T01:00:25.347Z,4.85
2019-04-30T01:03:05.965Z,3.87
2019-04-30T01:05:35.344Z,3.58
2019-04-30T01:08:07.035Z,4.22
2019-04-30T01:10:36.228Z,4.92
2019-04-30T01:13:08.130Z,4.78
2019-04-30T01:15:36.477Z,4.17
2019-04-30T01:18:05.805Z,4.12
2019-04-30T01:20:35.228Z,4.53
2019-04-30T01:23:09.833Z,5.08
2019-04-30T01:25:35.845Z,5.00
2019-04-30T01:28:05.098Z,3.80
2019-04-30T01:30:34.402Z,5.03
2019-04-30T01:33:03.800Z,4.50
2019-04-30T01:35:33.034Z,4.08
2019-04-30T01:38:03.997Z,4.92
2019-04-30T01:40:35.849Z,3.45
2019-04-30T01:43:05.094Z,4.85
2019-04-30T01:45:34.321Z,3.85
2019-04-30T01:48:08.574Z,4.12
2019-04-30T01:50:38.655Z,5.35
2019-04-30T01:53:09.634Z,4.03
2019-04-30T01:55:56.417Z,4.03
2019-04-30T01:58:29.938Z,5.03
2019-04-30T02:00:59.800Z,4.20
2019-04-30T02:03:29.293Z,4.20
2019-04-30T02:05:59.616Z,4.90
2019-04-30T02:08:29.623Z,4.33
2019-04-30T02:10:59.399Z,3.85
2019-04-30T02:13:31.246Z,3.60
2019-04-30T02:15:59.656Z,4.45
2019-04-30T02:18:29.690Z,4.75
2019-04-30T02:20:59.497Z,4.20
2019-04-30T02:23:29.671Z,3.50
2019-04-30T02:25:59.780Z,3.62
2019-04-30T02:28:29.149Z,4.00
2019-04-30T02:31:00.393Z,4.33
2019-04-30T02:33:31.281Z,4.40
2019-04-30T02:36:10.258Z,3.15
2019-04-30T02:38:43.326Z,3.80
2019-04-30T02:41:13.361Z,2.85
2019-04-30T02:43:42.928Z,4.15
2019-04-30T02:46:13.202Z,4.22
2019-04-30T02:48:43.526Z,3.25
2019-04-30T02:51:14.040Z,3.35
2019-04-30T02:53:50.812Z,3.60
2019-04-30T02:56:21.112Z,2.75
2019-04-30T02:58:50.830Z,4.00
2019-04-30T03:01:20.630Z,4.28
2019-04-30T03:03:50.377Z,2.80
2019-04-30T03:06:23.447Z,3.62
2019-04-30T03:08:51.435Z,3.65
2019-04-30T03:11:21.159Z,5.10
2019-04-30T03:13:50.621Z,3.67
2019-04-30T03:16:30.235Z,3.85
2019-04-30T03:19:00.146Z,3.30
2019-04-30T03:21:32.045Z,4.05
2019-04-30T03:24:01.639Z,4.95
2019-04-30T03:26:31.186Z,3.22
2019-04-30T03:29:00.926Z,3.10
2019-04-30T03:31:32.368Z,3.65
2019-04-30T03:34:02.259Z,3.80
2019-04-30T03:36:32.797Z,4.80
2019-04-30T03:39:02.086Z,3.87
2019-04-30T03:41:33.454Z,3.83
2019-04-30T03:44:17.115Z,3.02
2019-04-30T03:46:33.927Z,2.87
2019-04-30T03:49:03.197Z,3.12
2019-04-30T03:51:32.454Z,3.35
2019-04-30T03:54:01.790Z,4.37
2019-04-30T03:56:31.031Z,3.30
2019-04-30T03:59:00.340Z,3.98
2019-04-30T04:01:39.745Z,3.25
2019-04-30T04:04:26.142Z,4.72
2019-04-30T04:07:05.984Z,3.15
2019-04-30T04:09:51.482Z,3.67
2019-04-30T04:12:24.585Z,3.95
2019-04-30T04:14:53.981Z,3.87
2019-04-30T04:17:23.477Z,3.05
2019-04-30T04:19:52.706Z,2.65
2019-04-30T04:22:21.966Z,3.25
2019-04-30T04:24:51.201Z,2.90
2019-04-30T04:27:20.655Z,3.72
2019-04-30T04:29:51.542Z,3.30
2019-04-30T04:32:24.138Z,3.75
2019-04-30T04:34:51.635Z,4.25
2019-04-30T04:37:20.955Z,3.40
2019-04-30T04:39:50.665Z,3.75
2019-04-30T04:42:20.078Z,3.75
2019-04-30T04:44:50.409Z,3.00
2019-04-30T04:47:20.389Z,3.80
2019-04-30T04:49:53.102Z,6.75
2019-04-30T04:52:22.010Z,5.83
2019-04-30T04:54:51.584Z,5.83
2019-04-30T04:57:22.582Z,6.45
2019-04-30T04:59:51.768Z,6.15
2019-04-30T05:02:23.922Z,7.78
2019-04-30T05:04:53.739Z,8.15
2019-04-30T05:07:22.988Z,7.62
2019-04-30T05:09:52.368Z,8.15
2019-04-30T05:12:22.140Z,7.47
2019-04-30T05:14:51.542Z,8.20
2019-04-30T05:17:21.137Z,10.05
2019-04-30T05:19:51.714Z,10.03
2019-04-30T05:22:21.048Z,9.38
2019-04-30T05:24:50.440Z,10.53
2019-04-30T05:27:20.434Z,11.33
2019-04-30T05:29:49.955Z,8.20
2019-04-30T05:32:19.720Z,9.50
2019-04-30T05:34:49.701Z,10.00
2019-04-30T05:37:19.400Z,9.73
2019-04-30T05:39:48.958Z,12.63
2019-04-30T05:42:18.547Z,9.28
2019-04-30T05:44:49.512Z,10.40
2019-04-30T05:47:19.606Z,10.60
2019-04-30T05:49:49.666Z,9.48
2019-04-30T05:52:19.949Z,10.50
2019-04-30T05:54:49.953Z,10.95
2019-04-30T05:57:20.193Z,10.08
2019-04-30T05:59:49.471Z,12.43
2019-04-30T06:02:19.739Z,8.98
2019-04-30T06:04:49.178Z,11.30
2019-04-30T06:07:19.000Z,10.75
2019-04-30T06:09:57.032Z,9.23
2019-04-30T06:12:36.881Z,9.55
2019-04-30T06:15:19.635Z,8.58
2019-04-30T06:18:00.098Z,7.22
2019-04-30T06:20:21.422Z,8.13
2019-04-30T06:22:52.289Z,7.72
2019-04-30T06:25:31.705Z,8.58
2019-04-30T06:27:52.633Z,7.20
2019-04-30T06:30:22.383Z,8.15
2019-04-30T06:32:52.030Z,5.83
2019-04-30T06:35:21.421Z,8.20
2019-04-30T06:37:50.739Z,9.03
2019-04-30T06:40:20.593Z,8.58
2019-04-30T06:42:50.244Z,6.78
2019-04-30T06:45:19.510Z,7.22
2019-04-30T06:47:49.010Z,7.08
2019-04-30T06:50:19.545Z,7.62
2019-04-30T06:52:56.230Z,7.05
2019-04-30T06:55:19.646Z,9.00
2019-04-30T06:57:49.652Z,7.05
2019-04-30T07:00:32.668Z,7.15
2019-04-30T07:02:51.725Z,7.92
2019-04-30T07:05:20.983Z,7.85
2019-04-30T07:08:12.125Z,7.50
2019-04-30T07:10:47.696Z,6.17
2019-04-30T07:13:15.686Z,5.37
2019-04-30T07:15:45.002Z,6.58
2019-04-30T07:18:14.265Z,6.72
2019-04-30T07:20:43.529Z,7.30
2019-04-30T07:23:12.772Z,5.87
2019-04-30T07:25:42.133Z,6.72
2019-04-30T07:28:11.365Z,6.80
2019-04-30T07:30:40.607Z,6.72
2019-04-30T07:33:09.866Z,7.28
2019-04-30T07:35:39.943Z,9.03
2019-04-30T07:38:09.473Z,4.80
2019-04-30T07:40:39.038Z,6.12
2019-04-30T07:43:09.081Z,7.65
2019-04-30T07:45:39.760Z,5.33
2019-04-30T07:48:09.465Z,5.90
2019-04-30T07:50:41.137Z,6.03
2019-04-30T07:53:11.761Z,6.47
2019-04-30T07:55:41.727Z,5.50
2019-04-30T07:58:10.989Z,5.55
2019-04-30T08:00:40.468Z,5.45
2019-04-30T08:03:20.812Z,6.12
2019-04-30T08:05:52.207Z,5.58
2019-04-30T08:09:35.581Z,5.25
2019-04-30T08:10:52.397Z,7.53
2019-04-30T08:13:22.407Z,4.55
2019-04-30T08:15:52.057Z,5.60
2019-04-30T08:18:21.330Z,5.28
2019-04-30T08:20:50.568Z,6.00
2019-04-30T08:23:34.125Z,6.50
2019-04-30T08:25:52.050Z,5.87
2019-04-30T08:28:21.417Z,5.70
2019-04-30T08:30:50.654Z,6.45
2019-04-30T08:33:19.913Z,6.20
2019-04-30T08:35:49.965Z,6.42
2019-04-30T08:38:19.455Z,6.72
2019-04-30T08:40:56.089Z,6.22
2019-04-30T08:43:19.934Z,5.60
2019-04-30T08:45:49.197Z,5.62
2019-04-30T08:48:19.014Z,5.80
2019-04-30T08:50:49.528Z,6.15
2019-04-30T08:53:27.388Z,5.15
2019-04-30T08:55:49.993Z,4.78
2019-04-30T08:58:20.558Z,6.10
2019-04-30T09:00:49.860Z,5.37
2019-04-30T09:03:19.495Z,6.42
2019-04-30T09:05:50.429Z,7.08
2019-04-30T09:08:19.729Z,6.08
2019-04-30T09:10:49.182Z,4.90
2019-04-30T09:13:19.174Z,5.70
2019-04-30T09:15:49.228Z,5.30
2019-04-30T09:18:19.160Z,5.12
2019-04-30T09:20:49.516Z,5.37
2019-04-30T09:23:18.852Z,5.05
2019-04-30T09:25:49.717Z,5.50
2019-04-30T09:28:19.886Z,5.80
2019-04-30T09:30:49.537Z,5.45
2019-04-30T09:33:19.467Z,4.58
2019-04-30T09:35:49.527Z,5.15
2019-04-30T09:38:19.510Z,5.62
2019-04-30T09:40:50.752Z,5.30
2019-04-30T09:45:59.828Z,4.65
2019-04-30T09:48:30.585Z,4.08
2019-04-30T09:51:01.023Z,5.92
2019-04-30T09:53:30.882Z,4.50
2019-04-30T09:56:00.753Z,5.67
2019-04-30T09:58:31.254Z,5.87
2019-04-30T10:01:00.541Z,4.35
2019-04-30T10:03:30.607Z,5.65
2019-04-30T10:06:00.838Z,6.58
2019-04-30T10:08:30.901Z,7.30
2019-04-30T10:11:17.401Z,5.80
2019-04-30T10:13:46.609Z,5.97
2019-04-30T10:16:20.130Z,4.05
2019-04-30T10:18:49.369Z,5.53
2019-04-30T10:21:19.074Z,5.95
2019-04-30T10:23:49.906Z,6.00
2019-04-30T10:26:19.320Z,4.70
2019-04-30T10:28:50.024Z,5.30
2019-04-30T10:31:20.910Z,5.12
2019-04-30T10:33:50.204Z,5.85
2019-04-30T10:36:19.495Z,5.47
2019-04-30T10:38:49.402Z,5.40
2019-04-30T10:41:19.087Z,5.50
2019-04-30T10:43:49.226Z,5.70
2019-04-30T10:46:18.990Z,5.37
2019-04-30T10:48:48.286Z,6.20
2019-04-30T10:51:18.926Z,6.25
2019-04-30T10:53:48.592Z,6.72
2019-04-30T10:56:20.320Z,6.65
2019-04-30T10:58:49.584Z,6.10
2019-04-30T11:01:19.229Z,6.53
2019-04-30T11:03:48.582Z,5.12
2019-04-30T11:06:19.209Z,5.25
2019-04-30T11:08:48.494Z,4.85
2019-04-30T11:11:17.783Z,4.67
2019-04-30T11:13:47.023Z,5.03
2019-04-30T11:16:16.257Z,5.83
2019-04-30T11:18:45.678Z,6.30
2019-04-30T11:21:15.245Z,6.92
2019-04-30T11:23:44.621Z,4.40
2019-04-30T11:26:14.862Z,5.85
2019-04-30T11:28:44.792Z,5.40
2019-04-30T11:31:24.990Z,4.90
2019-04-30T11:33:56.207Z,5.75
2019-04-30T11:36:25.474Z,5.00
2019-04-30T11:38:54.738Z,5.50
2019-04-30T11:41:32.411Z,4.50
2019-04-30T11:43:54.869Z,5.35
2019-04-30T11:46:25.633Z,4.62
2019-04-30T11:48:54.974Z,6.60
2019-04-30T11:51:26.814Z,7.33
2019-04-30T11:53:55.089Z,8.15
2019-04-30T11:56:24.355Z,5.37
2019-04-30T11:58:53.599Z,5.35
2019-04-30T12:01:27.460Z,4.35
2019-04-30T12:03:56.702Z,5.95
2019-04-30T12:06:26.061Z,8.65
2019-04-30T12:09:02.667Z,3.80
2019-04-30T12:11:35.274Z,4.87
2019-04-30T12:14:05.206Z,5.30
2019-04-30T12:16:34.443Z,4.70
2019-04-30T12:19:03.737Z,4.90
2019-04-30T12:21:33.002Z,5.15
2019-04-30T12:24:02.270Z,4.33
2019-04-30T12:26:31.597Z,6.62
2019-04-30T12:29:00.835Z,6.17
2019-04-30T12:31:30.121Z,4.92
2019-04-30T12:33:59.349Z,4.50
2019-04-30T12:36:28.974Z,5.80
2019-04-30T12:38:58.609Z,4.62
2019-04-30T12:41:27.877Z,4.90
2019-04-30T12:43:57.152Z,6.47
2019-04-30T12:46:26.390Z,5.67
2019-04-30T12:48:59.459Z,5.62
2019-04-30T12:51:29.810Z,5.25
2019-04-30T12:54:06.428Z,4.62
2019-04-30T12:56:44.165Z,6.83
2019-04-30T12:59:13.465Z,5.35
2019-04-30T13:01:42.773Z,7.60
2019-04-30T13:04:12.047Z,5.80
2019-04-30T13:06:41.702Z,6.83
2019-04-30T13:09:12.656Z,6.83
2019-04-30T13:11:42.977Z,5.72
2019-04-30T13:14:12.835Z,6.37
2019-04-30T13:16:42.632Z,4.65
2019-04-30T13:19:11.922Z,5.90
2019-04-30T13:21:41.181Z,5.00
2019-04-30T13:24:10.450Z,5.08
2019-04-30T13:26:39.799Z,4.33
2019-04-30T13:29:16.783Z,5.67
2019-04-30T13:31:46.118Z,4.75
2019-04-30T13:34:18.610Z,3.80
2019-04-30T13:36:49.383Z,5.67
2019-04-30T13:39:23.504Z,6.15
2019-04-30T13:41:54.371Z,4.70
2019-04-30T13:44:25.314Z,5.58
2019-04-30T13:46:54.565Z,4.53
2019-04-30T13:49:23.792Z,5.72
2019-04-30T13:51:53.072Z,6.50
2019-04-30T13:54:22.302Z,6.60
2019-04-30T13:56:51.538Z,6.33
2019-04-30T13:59:20.796Z,5.12
2019-04-30T14:01:50.121Z,4.58
2019-04-30T14:04:30.070Z,5.37
2019-04-30T14:07:13.180Z,4.97
2019-04-30T14:09:42.593Z,5.20
2019-04-30T14:12:11.892Z,4.78
2019-04-30T14:14:41.163Z,4.45
2019-04-30T14:17:10.517Z,5.20
2019-04-30T14:19:39.750Z,4.55
2019-04-30T14:22:09.762Z,6.05
2019-04-30T14:24:39.016Z,5.90
2019-04-30T14:27:09.016Z,4.97
2019-04-30T14:29:39.543Z,5.47
2019-04-30T14:32:09.322Z,4.67
2019-04-30T14:34:39.530Z,4.78
2019-04-30T14:37:09.163Z,5.08
2019-04-30T14:39:38.607Z,4.97
2019-04-30T14:42:11.001Z,5.70
2019-04-30T14:44:40.347Z,4.58
2019-04-30T14:47:14.890Z,4.92
2019-04-30T14:50:05.417Z,4.70
2019-04-30T14:52:36.359Z,4.53
2019-04-30T14:55:23.703Z,3.87
2019-04-30T14:58:09.829Z,3.72
2019-04-30T15:00:55.789Z,6.20
2019-04-30T15:03:26.694Z,5.97
2019-04-30T15:05:55.927Z,5.30
2019-04-30T15:08:25.189Z,4.70
2019-04-30T15:10:54.418Z,5.17
2019-04-30T15:13:23.778Z,4.40
2019-04-30T15:15:53.009Z,3.87
2019-04-30T15:18:22.282Z,4.53
2019-04-30T15:20:51.861Z,5.30
2019-04-30T15:23:39.325Z,3.50
2019-04-30T15:26:16.156Z,4.72
2019-04-30T15:28:41.471Z,4.22
2019-04-30T15:31:10.465Z,4.12
2019-04-30T15:33:41.350Z,4.40
2019-04-30T15:36:10.613Z,4.37
2019-04-30T15:38:56.441Z,4.95
2019-04-30T15:41:25.743Z,3.60
2019-04-30T15:43:55.047Z,3.72
2019-04-30T15:46:24.361Z,4.25
2019-04-30T15:48:53.629Z,5.20
2019-04-30T15:51:23.876Z,3.85
2019-04-30T15:53:53.130Z,5.20
2019-04-30T15:56:33.877Z,4.72
2019-04-30T15:59:11.439Z,5.45
2019-04-30T16:01:42.715Z,3.55
2019-04-30T16:04:13.609Z,4.90
2019-04-30T16:06:42.877Z,3.72
2019-04-30T16:09:31.757Z,4.62
2019-04-30T16:12:02.685Z,3.90
2019-04-30T16:14:33.565Z,4.60
2019-04-30T16:17:07.515Z,4.87
2019-04-30T16:19:36.746Z,3.72
2019-04-30T16:22:06.203Z,3.25
2019-04-30T16:24:35.434Z,4.60
2019-04-30T16:27:05.164Z,3.67
2019-04-30T16:29:34.395Z,4.05
2019-04-30T16:32:03.693Z,3.47
2019-04-30T16:34:34.279Z,4.12
2019-04-30T16:37:03.518Z,3.27
2019-04-30T16:39:32.759Z,3.55
2019-04-30T16:42:02.019Z,4.35
2019-04-30T16:44:32.381Z,4.30
2019-04-30T16:47:12.896Z,3.60
2019-04-30T16:49:32.566Z,3.67
2019-04-30T16:52:02.304Z,3.95
2019-04-30T16:54:32.653Z,3.90
2019-04-30T16:57:06.117Z,3.55
2019-04-30T16:59:38.966Z,3.77
2019-04-30T17:02:09.373Z,4.03
2019-04-30T17:04:49.619Z,3.98
2019-04-30T17:07:32.392Z,5.58
2019-04-30T17:10:03.269Z,4.08
2019-04-30T17:12:34.299Z,4.37
2019-04-30T17:15:22.568Z,3.08
2019-04-30T17:17:51.918Z,3.60
2019-04-30T17:20:21.188Z,3.87
2019-04-30T17:22:50.664Z,4.08
2019-04-30T17:25:19.962Z,3.08
2019-04-30T17:27:49.247Z,4.83
2019-04-30T17:30:19.342Z,4.10
2019-04-30T17:32:49.841Z,3.65
2019-04-30T17:35:19.595Z,4.78
2019-04-30T17:37:48.828Z,3.67
2019-04-30T17:40:19.261Z,4.17
2019-04-30T17:42:48.717Z,3.30
2019-04-30T17:45:19.510Z,4.25
2019-04-30T17:47:49.239Z,4.08
2019-04-30T17:50:18.855Z,4.55
2019-04-30T17:52:48.353Z,5.70
2019-04-30T17:55:19.360Z,4.55
2019-04-30T17:57:48.782Z,5.87
2019-04-30T18:00:22.046Z,5.35
2019-04-30T18:02:49.231Z,5.30
2019-04-30T18:05:19.458Z,6.30
2019-04-30T18:07:49.812Z,7.78
2019-04-30T18:10:19.921Z,7.12
2019-04-30T18:12:49.210Z,5.70
2019-04-30T18:15:23.696Z,5.95
2019-04-30T18:17:54.663Z,5.53
2019-04-30T18:20:31.563Z,6.10
2019-04-30T18:23:05.445Z,5.50
2019-04-30T18:25:39.099Z,5.33
2019-04-30T18:28:09.161Z,6.60
2019-04-30T18:30:39.758Z,6.40
2019-04-30T18:33:09.848Z,6.62
2019-04-30T18:35:39.381Z,6.08
2019-04-30T18:38:09.783Z,6.00
2019-04-30T18:40:39.749Z,6.08
2019-04-30T18:43:09.692Z,5.92
2019-04-30T18:45:39.575Z,7.55
2019-04-30T18:48:09.805Z,6.42
2019-04-30T18:50:39.232Z,6.53
2019-04-30T18:53:13.141Z,6.75
2019-04-30T18:55:42.409Z,5.92
2019-04-30T18:58:11.706Z,9.05
2019-04-30T19:00:44.825Z,7.67
2019-04-30T19:03:14.191Z,6.60
2019-04-30T19:05:45.051Z,8.85
2019-04-30T19:08:22.317Z,9.05
2019-04-30T19:11:00.532Z,7.15
2019-04-30T19:13:40.512Z,7.90
2019-04-30T19:16:26.611Z,6.58
2019-04-30T19:19:03.413Z,9.98
2019-04-30T19:21:32.747Z,9.13
2019-04-30T19:24:02.041Z,9.50
2019-04-30T19:26:31.369Z,8.75
2019-04-30T19:29:00.613Z,9.13
2019-04-30T19:31:30.278Z,7.55
2019-04-30T19:33:59.523Z,10.95
2019-04-30T19:36:37.372Z,10.88
2019-04-30T19:38:59.904Z,8.10
2019-04-30T19:41:29.255Z,9.00
2019-04-30T19:43:58.499Z,10.28
2019-04-30T19:46:29.434Z,7.83
2019-04-30T19:48:58.726Z,8.93
2019-04-30T19:51:29.637Z,9.23
2019-04-30T19:53:59.877Z,8.50
2019-04-30T19:56:30.430Z,9.60
2019-04-30T19:59:05.132Z,9.95
2019-04-30T20:01:32.508Z,9.60
2019-04-30T20:04:01.806Z,7.78
2019-04-30T20:06:31.049Z,8.55
2019-04-30T20:09:00.782Z,8.23
2019-04-30T20:11:31.721Z,8.05
2019-04-30T20:14:00.976Z,8.43
2019-04-30T20:16:30.228Z,9.65
2019-04-30T20:18:59.558Z,8.48
2019-04-30T20:21:45.331Z,8.10
2019-04-30T20:24:00.814Z,8.13
2019-04-30T20:26:30.152Z,8.13
2019-04-30T20:28:59.768Z,8.60
2019-04-30T20:31:29.153Z,9.48
2019-04-30T20:33:59.166Z,7.65
2019-04-30T20:36:31.069Z,7.47
2019-04-30T20:39:08.710Z,7.55
2019-04-30T20:41:39.611Z,8.18
2019-04-30T20:44:10.826Z,6.17
2019-04-30T20:46:40.566Z,6.85
2019-04-30T20:49:09.846Z,7.22
2019-04-30T20:51:46.784Z,7.95
2019-04-30T20:54:09.967Z,8.30
2019-04-30T20:56:39.244Z,8.80
2019-04-30T20:59:10.684Z,8.00
2019-04-30T21:01:40.123Z,7.70
2019-04-30T21:04:09.357Z,8.68
2019-04-30T21:06:39.580Z,6.75
2019-04-30T21:09:09.462Z,10.15
2019-04-30T21:11:40.505Z,7.87
2019-04-30T21:14:09.961Z,9.58
2019-04-30T21:16:39.246Z,7.22
2019-04-30T21:19:08.468Z,9.08
2019-04-30T21:21:38.730Z,8.53
2019-04-30T21:24:08.084Z,7.42
2019-04-30T21:26:37.395Z,7.25
2019-04-30T21:29:13.102Z,8.30
2019-04-30T21:31:41.882Z,8.25
2019-04-30T21:34:29.425Z,10.38
2019-04-30T21:36:59.684Z,6.33
2019-04-30T21:39:29.087Z,9.73
2019-04-30T21:41:59.443Z,8.23
2019-04-30T21:44:28.921Z,7.53
2019-04-30T21:46:59.256Z,6.83
2019-04-30T21:49:28.537Z,7.60
2019-04-30T21:51:57.828Z,8.18
2019-04-30T21:54:28.320Z,9.58
2019-04-30T21:56:57.990Z,9.65
2019-04-30T21:59:30.141Z,7.12
2019-04-30T22:01:58.101Z,7.28
2019-04-30T22:04:27.522Z,7.55
2019-04-30T22:06:56.808Z,7.42
2019-04-30T22:09:27.237Z,7.15
2019-04-30T22:11:56.505Z,7.12
2019-04-30T22:14:25.807Z,9.18
2019-04-30T22:16:55.048Z,6.50
2019-04-30T22:19:25.404Z,8.23
2019-04-30T22:21:54.659Z,7.37
2019-04-30T22:24:23.895Z,7.85
2019-04-30T22:26:53.231Z,8.68
2019-04-30T22:29:22.527Z,7.92
2019-04-30T22:31:51.752Z,7.40
2019-04-30T22:34:21.068Z,8.28
2019-04-30T22:36:50.335Z,7.50
2019-04-30T22:39:23.885Z,8.53
2019-04-30T22:41:54.613Z,7.45
2019-04-30T22:44:23.850Z,6.62
2019-04-30T22:46:53.205Z,7.03
2019-04-30T22:49:22.518Z,7.65
2019-04-30T22:51:51.757Z,7.37
2019-04-30T22:54:21.099Z,5.90
2019-04-30T22:56:50.338Z,6.95
2019-04-30T22:59:19.608Z,8.53
2019-04-30T23:01:50.483Z,7.08
2019-04-30T23:04:21.401Z,7.50
2019-04-30T23:06:50.636Z,7.55
2019-04-30T23:09:19.868Z,6.75
2019-04-30T23:11:49.138Z,7.90
2019-04-30T23:14:18.407Z,5.95
2019-04-30T23:16:47.716Z,7.00
2019-04-30T23:19:16.997Z,6.45
2019-04-30T23:21:46.221Z,8.20
2019-04-30T23:24:15.458Z,7.33
2019-04-30T23:26:44.726Z,7.33
2019-04-30T23:29:13.983Z,7.12
2019-04-30T23:31:43.239Z,7.58
2019-04-30T23:34:18.183Z,7.65
2019-04-30T23:36:43.368Z,7.33
2019-04-30T23:39:12.648Z,7.78
2019-04-30T23:41:42.006Z,6.65
2019-04-30T23:44:11.262Z,6.50
2019-04-30T23:46:40.532Z,6.37
2019-04-30T23:49:09.785Z,7.53
2019-04-30T23:51:39.017Z,7.10
2019-04-30T23:54:08.286Z,6.92
2019-04-30T23:56:37.528Z,6.47
2019-04-30T23:59:06.876Z,7.28
